createdAt,value
2023-09-11T13:51:04.036Z,8.48
2023-09-11T13:53:36.343Z,8.75
2023-09-11T13:56:11.050Z,10.27
2023-09-11T13:58:45.163Z,9.40
2023-09-11T14:01:18.903Z,9.98
2023-09-11T14:03:51.291Z,9.52
2023-09-11T14:06:26.070Z,12.65
2023-09-11T14:08:58.776Z,10.02
2023-09-11T14:11:30.968Z,10.10
2023-09-11T14:14:03.771Z,9.40
2023-09-11T14:16:35.989Z,9.15
2023-09-11T14:19:09.582Z,13.00
2023-09-11T14:21:41.843Z,15.40
2023-09-11T14:24:17.385Z,11.30
2023-09-11T14:26:49.734Z,8.90
2023-09-11T14:29:21.918Z,12.80
2023-09-11T14:31:55.186Z,14.88
2023-09-11T14:34:27.510Z,10.52
2023-09-11T14:37:17.073Z,11.55
2023-09-11T14:39:51.895Z,12.70
2023-09-11T14:42:24.218Z,10.75
2023-09-11T14:44:56.573Z,15.30
2023-09-11T14:47:28.967Z,11.90
2023-09-11T14:50:03.043Z,17.00
2023-09-11T14:52:35.537Z,11.18
2023-09-11T14:55:08.859Z,15.20
2023-09-11T14:57:41.709Z,13.43
2023-09-11T15:00:15.751Z,10.50
2023-09-11T15:02:48.114Z,14.80
2023-09-11T15:05:20.709Z,15.38
2023-09-11T15:07:52.986Z,15.30
2023-09-11T15:10:25.218Z,12.47
2023-09-11T15:12:57.681Z,16.00
2023-09-11T15:15:31.042Z,17.83
2023-09-11T15:18:03.798Z,11.50
2023-09-11T15:20:36.107Z,12.95
2023-09-11T15:23:08.321Z,13.50
2023-09-11T15:25:40.935Z,13.63
2023-09-11T15:28:13.136Z,13.77
2023-09-11T15:30:45.366Z,43.80
2023-09-11T15:33:19.235Z,17.38
2023-09-11T15:36:06.979Z,18.75
2023-09-11T15:38:42.071Z,13.10
2023-09-11T15:41:14.595Z,13.82
2023-09-11T15:43:47.911Z,15.50
2023-09-11T15:46:35.145Z,11.82
2023-09-11T15:49:13.023Z,14.35
2023-09-11T15:51:45.472Z,13.30
2023-09-11T15:54:17.702Z,16.25
2023-09-11T15:56:50.145Z,12.13
2023-09-11T15:59:22.296Z,15.40
2023-09-11T16:01:54.513Z,10.57
2023-09-11T16:04:28.456Z,12.23
2023-09-11T16:07:00.889Z,12.88
2023-09-11T16:09:33.513Z,14.73
2023-09-11T16:12:06.025Z,10.90
2023-09-11T16:14:38.254Z,10.93
2023-09-11T16:17:10.614Z,14.67
2023-09-11T16:19:42.784Z,10.80
2023-09-11T16:22:15.554Z,10.83
2023-09-11T16:24:47.726Z,11.63
2023-09-11T16:27:20.280Z,14.80
2023-09-11T16:29:52.478Z,13.82
2023-09-11T16:32:25.186Z,13.40
2023-09-11T16:34:57.330Z,11.68
2023-09-11T16:37:29.730Z,17.27
2023-09-11T16:40:01.854Z,12.23
2023-09-11T16:42:34.319Z,12.10
2023-09-11T16:45:06.982Z,18.95
2023-09-11T16:47:40.341Z,11.80
2023-09-11T16:50:14.353Z,12.00
2023-09-11T16:52:47.629Z,12.15
2023-09-11T16:55:19.859Z,11.65
2023-09-11T16:57:52.607Z,14.65
2023-09-11T17:00:26.642Z,11.27
2023-09-11T17:02:59.184Z,17.25
2023-09-11T17:05:31.402Z,12.75
2023-09-11T17:08:03.826Z,17.00
2023-09-11T17:10:36.177Z,12.80
2023-09-11T17:13:08.682Z,13.43
2023-09-11T17:15:41.109Z,19.83
2023-09-11T17:18:13.392Z,14.88
2023-09-11T17:20:45.941Z,13.63
2023-09-11T17:23:18.185Z,14.97
2023-09-11T17:25:50.332Z,18.60
2023-09-11T17:28:22.566Z,14.68
2023-09-11T17:30:55.045Z,18.38
2023-09-11T17:33:27.566Z,14.90
2023-09-11T17:36:00.681Z,14.48
2023-09-11T17:38:32.872Z,13.38
2023-09-11T17:41:05.845Z,13.82
2023-09-11T17:43:38.090Z,15.02
2023-09-11T17:46:16.104Z,19.98
2023-09-11T17:48:48.857Z,15.95
2023-09-11T17:51:21.420Z,16.60
2023-09-11T17:53:53.698Z,17.75
2023-09-11T17:56:26.213Z,19.92
2023-09-11T17:58:58.386Z,14.80
2023-09-11T18:01:33.457Z,15.65
2023-09-11T18:04:05.909Z,14.95
2023-09-11T18:06:39.197Z,14.80
2023-09-11T18:09:12.248Z,16.25
2023-09-11T18:11:44.430Z,15.70
2023-09-11T18:14:16.823Z,16.38
2023-09-11T18:16:49.051Z,15.43
2023-09-11T18:19:21.288Z,20.33
2023-09-11T18:21:53.497Z,18.13
2023-09-11T18:24:26.249Z,14.27
2023-09-11T18:27:00.957Z,15.77
2023-09-11T18:29:33.462Z,14.65
2023-09-11T18:32:06.009Z,20.92
2023-09-11T18:34:38.580Z,16.60
2023-09-11T18:37:10.949Z,21.83
2023-09-11T18:39:43.204Z,15.73
2023-09-11T18:42:16.030Z,17.60
2023-09-11T18:44:48.353Z,22.50
2023-09-11T18:47:20.543Z,16.67
2023-09-11T18:49:52.764Z,24.73
2023-09-11T18:52:27.185Z,16.80
2023-09-11T18:54:59.371Z,15.02
2023-09-11T18:57:31.829Z,20.20
2023-09-11T19:00:05.507Z,19.40
2023-09-11T19:02:37.696Z,18.10
2023-09-11T19:05:11.002Z,18.00
2023-09-11T19:10:16.084Z,19.83
2023-09-11T19:12:48.800Z,18.35
2023-09-11T19:15:21.534Z,20.98
2023-09-11T19:17:54.062Z,17.30
2023-09-11T19:20:27.855Z,20.35
2023-09-11T19:23:00.391Z,19.33
2023-09-11T19:25:34.157Z,19.77
2023-09-11T19:28:06.524Z,19.90
2023-09-11T19:30:39.069Z,17.55
2023-09-11T19:33:11.328Z,24.33
2023-09-11T19:35:44.378Z,20.40
2023-09-11T19:38:16.701Z,18.42
2023-09-11T19:40:48.941Z,18.58
2023-09-11T19:43:23.935Z,18.13
2023-09-11T19:45:56.412Z,17.35
2023-09-11T19:48:29.196Z,25.13
2023-09-11T19:51:01.588Z,17.83
2023-09-11T19:53:33.932Z,17.75
2023-09-11T19:56:06.947Z,17.23
2023-09-11T19:58:40.410Z,18.58
2023-09-11T20:01:13.025Z,17.70
2023-09-11T20:03:45.373Z,18.85
2023-09-11T20:06:18.342Z,22.27
2023-09-11T20:08:50.691Z,19.92
2023-09-11T20:11:24.014Z,18.20
2023-09-11T20:13:56.158Z,23.63
2023-09-11T20:16:29.540Z,21.57
2023-09-11T20:19:02.118Z,17.98
2023-09-11T20:21:34.320Z,26.77
2023-09-11T20:24:06.507Z,22.05
2023-09-11T20:26:38.920Z,22.02
2023-09-11T20:29:11.465Z,27.93
2023-09-11T20:31:44.041Z,24.67
2023-09-11T20:34:16.744Z,18.23
2023-09-11T20:36:49.122Z,24.63
2023-09-11T20:39:24.865Z,19.70
2023-09-11T20:41:57.737Z,23.70
2023-09-11T20:44:30.073Z,21.58
2023-09-11T20:47:02.284Z,23.33
2023-09-11T20:49:34.822Z,21.50
2023-09-11T20:52:07.180Z,20.35
2023-09-11T20:54:39.720Z,20.98
2023-09-11T20:57:12.427Z,25.58
2023-09-11T20:59:44.805Z,28.33
2023-09-11T21:02:17.142Z,27.17
2023-09-11T21:04:51.256Z,29.38
2023-09-11T21:07:23.524Z,24.10
2023-09-11T21:09:56.224Z,26.95
2023-09-11T21:12:29.065Z,29.15
2023-09-11T21:15:01.512Z,30.80
2023-09-11T21:17:33.706Z,27.98
2023-09-11T21:20:06.594Z,31.35
2023-09-11T21:22:39.318Z,28.65
2023-09-11T21:25:15.011Z,33.75
2023-09-11T21:27:47.548Z,34.80
2023-09-11T21:30:19.838Z,29.48
2023-09-11T21:32:53.135Z,27.70
2023-09-11T21:35:26.553Z,29.63
2023-09-11T21:37:58.765Z,28.65
2023-09-11T21:40:31.234Z,29.70
2023-09-11T21:43:03.638Z,26.73
2023-09-11T21:45:40.808Z,26.60
2023-09-11T21:48:13.222Z,28.00
2023-09-11T21:50:45.512Z,23.65
2023-09-11T21:53:17.683Z,26.90
2023-09-11T21:55:49.805Z,24.73
2023-09-11T21:58:22.009Z,22.30
2023-09-11T22:00:54.953Z,26.25
2023-09-11T22:03:27.235Z,25.67
2023-09-11T22:05:59.420Z,24.55
2023-09-11T22:08:31.835Z,21.45
2023-09-11T22:11:04.081Z,24.63
2023-09-11T22:13:36.402Z,24.40
2023-09-11T22:16:08.640Z,22.67
2023-09-11T22:18:40.866Z,28.70
2023-09-11T22:21:13.089Z,21.92
2023-09-11T22:23:45.362Z,25.73
2023-09-11T22:26:17.595Z,20.45
2023-09-11T22:28:50.055Z,21.27
2023-09-11T22:31:22.380Z,25.30
2023-09-11T22:33:54.633Z,22.73
2023-09-11T22:36:26.896Z,19.80
2023-09-11T22:38:59.089Z,21.38
2023-09-11T22:41:31.487Z,20.55
2023-09-11T22:44:03.716Z,20.05
2023-09-11T22:46:36.018Z,19.90
2023-09-11T22:49:08.332Z,19.90
2023-09-11T22:51:40.582Z,21.63
2023-09-11T22:54:12.752Z,20.92
2023-09-11T22:56:45.270Z,23.05
2023-09-11T22:59:17.680Z,23.17
2023-09-11T23:01:49.876Z,21.15
2023-09-11T23:04:22.282Z,23.42
2023-09-11T23:06:54.754Z,22.55
2023-09-11T23:09:26.973Z,20.38
2023-09-11T23:11:59.197Z,21.02
2023-09-11T23:14:31.454Z,24.17
2023-09-11T23:17:03.822Z,21.23
2023-09-11T23:19:35.952Z,27.52
2023-09-11T23:22:08.178Z,21.30
2023-09-11T23:24:40.678Z,21.35
2023-09-11T23:27:13.408Z,26.40
2023-09-11T23:29:45.600Z,22.42
2023-09-11T23:32:17.762Z,20.02
2023-09-11T23:34:49.948Z,23.90
2023-09-11T23:37:22.094Z,20.48
2023-09-11T23:39:54.344Z,20.30
2023-09-11T23:42:26.592Z,23.00
2023-09-11T23:44:58.843Z,20.90
2023-09-11T23:47:31.528Z,22.60
2023-09-11T23:50:05.228Z,19.80
2023-09-11T23:52:37.391Z,18.10
2023-09-11T23:55:11.031Z,20.63
